Time;durP1;ratioP1;P1;durP2;ratioP2;P2;SDS_P1;SDS_P2;PMS_P1;PMS_P2;Temp;Humidity;BMP_temperature;BMP_pressure;BME280_temperature;BME280_humidity;BME280_pressure;Samples;Min_cycle;Max_cycle;Signal;HPM_P1;HPM_P2
2023/10/20 00:00:18;;;;;;;34.78;25.73;;;10.70;99.90;;;;;;5022069;28;20487;-85
2023/10/20 00:02:44;;;;;;;30.77;24.45;;;10.70;99.90;;;;;;5028005;28;20029;-85
2023/10/20 00:05:09;;;;;;;33.90;24.20;;;10.60;99.90;;;;;;5033413;28;20022;-87
2023/10/20 00:07:38;;;;;;;33.05;25.20;;;10.70;99.90;;;;;;5045552;28;20037;-85
2023/10/20 00:10:05;;;;;;;34.25;26.67;;;10.70;99.90;;;;;;5042067;28;20035;-85
2023/10/20 00:12:30;;;;;;;31.65;26.30;;;10.70;99.90;;;;;;5026310;28;20503;-85
2023/10/20 00:14:56;;;;;;;34.88;25.63;;;10.70;99.90;;;;;;5024942;28;20116;-85
2023/10/20 00:17:22;;;;;;;35.30;25.40;;;10.60;99.90;;;;;;5027385;28;20026;-86
2023/10/20 00:19:48;;;;;;;34.88;25.50;;;10.70;99.90;;;;;;5022933;28;20034;-84
2023/10/20 00:22:15;;;;;;;40.15;25.63;;;10.70;99.90;;;;;;5025118;28;20024;-84
2023/10/20 00:24:41;;;;;;;31.67;25.50;;;10.70;99.90;;;;;;5024611;28;20038;-85
2023/10/20 00:27:08;;;;;;;30.67;24.23;;;10.70;99.90;;;;;;5024612;28;20033;-86
2023/10/20 00:29:34;;;;;;;29.23;24.42;;;10.70;99.90;;;;;;5024550;28;20034;-85
2023/10/20 00:32:00;;;;;;;33.75;25.13;;;10.70;99.90;;;;;;5025905;28;20377;-85
2023/10/20 00:34:25;;;;;;;33.33;23.55;;;10.70;99.90;;;;;;5024436;28;20022;-84
2023/10/20 00:36:51;;;;;;;36.28;24.85;;;10.70;99.90;;;;;;5025103;28;20032;-85
2023/10/20 00:39:16;;;;;;;34.53;24.40;;;10.70;99.90;;;;;;5025471;28;20030;-84
2023/10/20 00:41:42;;;;;;;33.22;24.13;;;10.70;99.90;;;;;;5024365;28;20022;-85
2023/10/20 00:44:07;;;;;;;32.55;25.05;;;10.70;99.90;;;;;;5023395;28;20034;-85
2023/10/20 00:46:35;;;;;;;32.63;24.00;;;10.70;99.90;;;;;;5025667;28;20064;-85
2023/10/20 00:49:01;;;;;;;33.53;25.13;;;10.70;99.90;;;;;;5025991;28;20056;-84
2023/10/20 00:51:28;;;;;;;34.85;25.92;;;10.70;99.90;;;;;;5024817;28;20029;-86
2023/10/20 00:53:56;;;;;;;33.20;26.23;;;10.60;99.90;;;;;;5024324;28;20038;-85
2023/10/20 00:56:22;;;;;;;33.55;25.73;;;10.60;99.90;;;;;;5024348;28;20036;-85
2023/10/20 00:58:47;;;;;;;33.25;26.33;;;10.60;99.90;;;;;;5025034;28;20594;-85
2023/10/20 01:01:13;;;;;;;32.83;25.70;;;10.60;99.90;;;;;;5024306;28;20040;-86
2023/10/20 01:03:39;;;;;;;38.28;27.15;;;10.60;99.90;;;;;;5025378;28;20037;-84
2023/10/20 01:06:05;;;;;;;33.63;25.77;;;10.60;99.90;;;;;;5026496;28;20519;-84
2023/10/20 01:08:31;;;;;;;35.90;24.38;;;10.60;99.90;;;;;;5023010;28;20029;-84
2023/10/20 01:10:56;;;;;;;34.58;26.25;;;10.60;99.90;;;;;;5004011;28;20516;-85
2023/10/20 01:13:22;;;;;;;34.95;26.50;;;10.60;99.90;;;;;;5019762;28;20045;-86
2023/10/20 01:15:49;;;;;;;34.58;26.38;;;10.60;99.90;;;;;;5021183;28;20029;-84
2023/10/20 01:18:14;;;;;;;34.55;26.38;;;10.60;99.90;;;;;;5021491;28;20033;-85
2023/10/20 01:20:40;;;;;;;35.17;26.40;;;10.70;99.90;;;;;;5021091;28;20041;-84
2023/10/20 01:23:06;;;;;;;35.75;25.90;;;10.60;99.90;;;;;;5021959;28;20037;-84
2023/10/20 01:25:31;;;;;;;34.22;26.05;;;10.70;99.90;;;;;;5019439;28;20022;-85
2023/10/20 01:27:58;;;;;;;33.10;26.35;;;10.70;99.90;;;;;;5019145;28;20052;-84
2023/10/20 01:30:25;;;;;;;35.05;26.45;;;10.70;99.90;;;;;;5019748;28;20112;-84
2023/10/20 01:32:51;;;;;;;34.53;26.38;;;10.60;99.90;;;;;;5018445;28;20027;-84
2023/10/20 01:35:17;;;;;;;30.98;26.15;;;10.60;99.90;;;;;;5016002;28;20026;-84
2023/10/20 01:37:44;;;;;;;35.70;26.33;;;10.60;99.90;;;;;;5023818;28;20043;-85
2023/10/20 01:40:12;;;;;;;32.03;24.83;;;10.60;99.90;;;;;;5022379;28;20041;-85
2023/10/20 01:42:38;;;;;;;36.00;26.58;;;10.60;99.90;;;;;;5023252;28;20034;-84
2023/10/20 01:45:05;;;;;;;36.35;26.90;;;10.60;99.90;;;;;;5022585;28;20029;-84
2023/10/20 01:47:30;;;;;;;38.65;27.48;;;10.60;99.90;;;;;;5023223;28;20046;-85
2023/10/20 01:49:56;;;;;;;35.30;27.83;;;10.60;99.90;;;;;;5023279;28;21339;-85
2023/10/20 01:52:22;;;;;;;36.78;27.02;;;10.60;99.90;;;;;;5024738;28;20442;-85
2023/10/20 01:54:47;;;;;;;38.95;27.27;;;10.60;99.90;;;;;;5024149;28;20076;-85
2023/10/20 01:57:13;;;;;;;34.53;27.00;;;10.60;99.90;;;;;;5024319;28;20034;-84
2023/10/20 01:59:38;;;;;;;35.97;28.40;;;10.60;99.90;;;;;;5025388;28;20029;-84
2023/10/20 02:02:04;;;;;;;34.40;26.70;;;10.60;99.90;;;;;;5024595;28;20438;-85
2023/10/20 02:04:30;;;;;;;35.40;26.20;;;10.60;99.90;;;;;;5023826;28;20891;-86
2023/10/20 02:06:56;;;;;;;34.80;27.25;;;10.60;99.90;;;;;;5023917;28;20501;-85
2023/10/20 02:09:25;;;;;;;32.85;26.77;;;10.60;99.90;;;;;;5023515;28;20021;-84
2023/10/20 02:11:51;;;;;;;36.47;27.40;;;10.60;99.90;;;;;;5024162;28;20053;-84
2023/10/20 02:14:17;;;;;;;36.22;27.02;;;10.60;99.90;;;;;;5022792;28;20029;-84
2023/10/20 02:16:42;;;;;;;34.05;27.52;;;10.50;99.90;;;;;;5023272;28;20025;-85
2023/10/20 02:19:08;;;;;;;38.08;27.38;;;10.50;99.90;;;;;;5022218;28;20022;-85
2023/10/20 02:21:34;;;;;;;34.60;28.88;;;10.50;99.90;;;;;;5022466;28;20044;-84
2023/10/20 02:23:59;;;;;;;42.42;29.10;;;10.50;99.90;;;;;;5004263;28;20045;-85
2023/10/20 02:26:25;;;;;;;43.95;30.55;;;10.50;99.90;;;;;;5019870;28;21064;-84
2023/10/20 02:28:50;;;;;;;37.50;30.27;;;10.50;99.90;;;;;;5021878;28;20025;-86
2023/10/20 02:31:17;;;;;;;46.55;28.77;;;10.50;99.90;;;;;;5020812;28;20033;-83
2023/10/20 02:33:43;;;;;;;38.67;30.60;;;10.50;99.90;;;;;;5021543;28;20036;-84
2023/10/20 02:36:14;;;;;;;42.58;30.52;;;10.50;99.90;;;;;;5020670;28;20033;-84
2023/10/20 02:38:40;;;;;;;39.60;30.13;;;10.50;99.90;;;;;;5023139;28;20021;-84
2023/10/20 02:41:05;;;;;;;42.35;30.70;;;10.40;99.90;;;;;;5021720;28;20052;-84
2023/10/20 02:43:31;;;;;;;40.63;31.73;;;10.40;99.90;;;;;;5021702;28;20108;-84
2023/10/20 02:45:57;;;;;;;44.13;31.98;;;10.40;99.90;;;;;;5021538;28;20037;-85
2023/10/20 02:48:23;;;;;;;44.20;33.00;;;10.40;99.90;;;;;;5020144;28;20033;-85
2023/10/20 02:50:49;;;;;;;41.40;31.70;;;10.40;99.90;;;;;;5020016;28;20025;-85
2023/10/20 02:53:15;;;;;;;42.20;32.78;;;10.30;99.90;;;;;;5020376;28;20030;-84
2023/10/20 02:55:42;;;;;;;45.28;32.15;;;10.30;99.90;;;;;;5022166;28;20373;-84
2023/10/20 02:58:11;;;;;;;41.53;32.40;;;10.30;99.90;;;;;;5022400;28;20038;-83
2023/10/20 03:00:45;;;;;;;40.58;32.08;;;10.30;99.90;;;;;;5028945;28;20082;-84
2023/10/20 03:03:13;;;;;;;42.13;32.40;;;10.30;99.90;;;;;;5043020;28;20048;-85
2023/10/20 03:05:41;;;;;;;41.77;31.60;;;10.30;99.90;;;;;;5037344;28;20125;-84
2023/10/20 03:08:08;;;;;;;42.60;32.28;;;10.30;99.90;;;;;;5021089;28;20058;-84
2023/10/20 03:10:35;;;;;;;45.80;32.92;;;10.30;99.90;;;;;;5018436;28;20034;-84
2023/10/20 03:13:02;;;;;;;43.57;32.77;;;10.30;99.90;;;;;;5019290;28;20128;-84
2023/10/20 03:15:27;;;;;;;42.10;33.65;;;10.20;99.90;;;;;;5021486;28;20082;-85
2023/10/20 03:17:53;;;;;;;43.63;33.78;;;10.20;99.90;;;;;;5022747;28;20057;-85
2023/10/20 03:20:24;;;;;;;47.28;33.47;;;10.20;99.90;;;;;;5023358;28;20033;-83
2023/10/20 03:22:51;;;;;;;41.90;33.30;;;10.20;99.90;;;;;;5023390;28;20068;-84
2023/10/20 03:25:18;;;;;;;46.13;33.65;;;10.20;99.90;;;;;;5022456;28;20034;-84
2023/10/20 03:27:44;;;;;;;39.07;31.73;;;10.20;99.90;;;;;;5021210;28;20382;-84
2023/10/20 03:30:10;;;;;;;47.10;33.50;;;10.20;99.90;;;;;;5021115;28;20072;-85
2023/10/20 03:32:35;;;;;;;46.07;34.10;;;10.20;99.90;;;;;;5026217;28;20017;-86
2023/10/20 03:35:01;;;;;;;45.00;34.25;;;10.20;99.90;;;;;;5022225;28;20017;-84
2023/10/20 03:37:27;;;;;;;42.63;33.73;;;10.20;99.90;;;;;;5025652;28;20705;-84
2023/10/20 03:39:53;;;;;;;50.83;35.27;;;10.20;99.90;;;;;;5025977;28;20057;-84
2023/10/20 03:42:18;;;;;;;47.45;35.65;;;10.20;99.90;;;;;;5024924;28;20041;-84
2023/10/20 03:44:46;;;;;;;45.53;34.40;;;10.20;99.90;;;;;;5025525;28;20684;-84
2023/10/20 03:47:13;;;;;;;43.97;34.33;;;10.20;99.90;;;;;;5026164;28;20511;-85
2023/10/20 03:49:39;;;;;;;46.70;33.33;;;10.20;99.90;;;;;;5026190;28;20041;-85
2023/10/20 03:52:11;;;;;;;43.00;33.93;;;10.10;99.90;;;;;;5025713;28;20489;-85
2023/10/20 03:54:38;;;;;;;48.70;35.58;;;10.10;99.90;;;;;;5023923;28;20036;-84
2023/10/20 03:57:04;;;;;;;47.22;36.47;;;10.10;99.90;;;;;;5026661;28;20082;-85
2023/10/20 03:59:30;;;;;;;46.85;36.25;;;10.10;99.90;;;;;;5025806;28;20029;-84
2023/10/20 04:01:56;;;;;;;49.42;36.80;;;10.10;99.90;;;;;;5024731;28;20101;-85
2023/10/20 04:04:22;;;;;;;48.40;36.25;;;10.10;99.90;;;;;;5024750;28;20026;-85
2023/10/20 04:06:49;;;;;;;52.80;37.65;;;10.10;99.90;;;;;;5022724;28;20044;-86
2023/10/20 04:09:17;;;;;;;53.83;37.17;;;10.10;99.90;;;;;;5020644;28;20057;-86
2023/10/20 04:11:43;;;;;;;50.42;39.22;;;10.10;99.90;;;;;;5023500;28;20044;-84
2023/10/20 04:14:09;;;;;;;55.67;40.50;;;10.00;99.90;;;;;;5020674;28;20029;-81
2023/10/20 04:16:39;;;;;;;52.40;39.67;;;10.00;99.90;;;;;;5018020;28;20104;-81
2023/10/20 04:19:07;;;;;;;51.00;37.37;;;10.00;99.90;;;;;;5019723;28;20038;-81
2023/10/20 04:21:33;;;;;;;52.67;40.00;;;10.00;99.90;;;;;;5023727;28;20029;-81
2023/10/20 04:23:59;;;;;;;51.30;37.80;;;10.00;99.90;;;;;;5021345;28;20033;-81
2023/10/20 04:26:24;;;;;;;56.70;40.97;;;10.00;99.90;;;;;;5018266;28;20033;-81
2023/10/20 04:29:13;;;;;;;55.67;40.33;;;10.00;99.90;;;;;;5019911;28;20556;-81
2023/10/20 04:53:12;;;;;;;56.40;39.57;;;10.00;99.90;;;;;;5021269;28;20084;-82
2023/10/20 04:58:34;;;;;;;56.37;42.00;;;10.00;99.90;;;;;;5019209;28;20048;-82
2023/10/20 05:01:07;;;;;;;54.07;41.87;;;10.00;99.90;;;;;;5017560;28;20033;-82
2023/10/20 05:03:45;;;;;;;57.45;41.80;;;10.00;99.90;;;;;;5018095;28;20033;-82
2023/10/20 05:06:32;;;;;;;63.50;43.27;;;10.00;99.90;;;;;;5015898;28;20034;-82
2023/10/20 05:08:57;;;;;;;57.47;42.00;;;10.00;99.90;;;;;;5018318;28;20094;-82
2023/10/20 05:11:24;;;;;;;62.85;43.80;;;10.00;99.90;;;;;;5017734;28;20037;-82
2023/10/20 05:13:50;;;;;;;63.13;43.37;;;10.00;99.90;;;;;;5017463;28;20036;-83
2023/10/20 05:16:16;;;;;;;56.10;42.37;;;10.00;99.90;;;;;;5017696;28;20025;-82
2023/10/20 05:18:42;;;;;;;58.57;43.50;;;10.00;99.90;;;;;;4999246;28;20038;-82
2023/10/20 05:21:08;;;;;;;55.10;42.03;;;10.00;99.90;;;;;;5017112;28;20030;-83
2023/10/20 05:23:36;;;;;;;57.03;41.87;;;10.00;99.90;;;;;;5013830;28;20037;-82
2023/10/20 05:26:02;;;;;;;56.50;41.40;;;10.00;99.90;;;;;;5013625;28;20076;-82
2023/10/20 05:28:29;;;;;;;55.33;40.85;;;10.00;99.90;;;;;;5016404;28;20022;-82
2023/10/20 05:30:54;;;;;;;55.83;42.47;;;10.00;99.90;;;;;;5016517;28;20590;-81
2023/10/20 05:33:20;;;;;;;56.97;40.10;;;10.00;99.90;;;;;;5015168;28;20025;-81
2023/10/20 05:35:46;;;;;;;57.60;42.38;;;10.00;99.90;;;;;;5014469;28;20080;-81
2023/10/20 05:38:12;;;;;;;58.22;41.05;;;10.00;99.90;;;;;;5011864;28;20025;-82
2023/10/20 05:40:37;;;;;;;58.00;44.00;;;10.00;99.90;;;;;;5011243;28;20021;-82
2023/10/20 05:43:05;;;;;;;60.63;43.50;;;10.00;99.90;;;;;;5014300;28;20037;-82
2023/10/20 05:45:36;;;;;;;57.38;41.05;;;10.00;99.90;;;;;;5013336;28;20042;-82
2023/10/20 05:48:02;;;;;;;60.58;43.33;;;10.00;99.90;;;;;;5012263;28;20040;-82
2023/10/20 05:50:28;;;;;;;60.30;43.30;;;9.90;99.90;;;;;;5015589;28;20041;-81
2023/10/20 05:52:53;;;;;;;58.93;43.00;;;9.90;99.90;;;;;;5017889;28;20090;-82
2023/10/20 05:55:19;;;;;;;59.77;43.33;;;9.90;99.90;;;;;;5018623;28;20030;-82
2023/10/20 05:57:45;;;;;;;57.03;42.22;;;9.90;99.90;;;;;;5028036;28;20060;-82
2023/10/20 06:00:13;;;;;;;62.45;43.92;;;9.90;99.90;;;;;;5034449;28;20030;-81
2023/10/20 06:02:40;;;;;;;57.40;41.83;;;9.90;99.90;;;;;;5025482;28;20049;-81
2023/10/20 06:05:07;;;;;;;61.23;44.07;;;9.90;99.90;;;;;;5011804;28;20030;-82
2023/10/20 06:07:32;;;;;;;68.23;46.27;;;9.90;99.90;;;;;;5018152;28;20033;-82
2023/10/20 06:09:58;;;;;;;62.57;44.57;;;9.90;99.90;;;;;;5019290;28;20030;-81
2023/10/20 06:12:23;;;;;;;58.77;42.53;;;9.80;99.90;;;;;;5016292;28;20046;-81
2023/10/20 06:14:49;;;;;;;56.30;42.67;;;9.90;99.90;;;;;;5018538;28;20108;-81
2023/10/20 06:17:17;;;;;;;62.65;45.00;;;9.80;99.90;;;;;;5019726;28;20647;-81
2023/10/20 06:19:44;;;;;;;61.47;44.93;;;9.80;99.90;;;;;;5016613;28;20076;-82
2023/10/20 06:22:09;;;;;;;63.60;48.57;;;9.80;99.90;;;;;;5017371;28;20021;-82
2023/10/20 06:24:35;;;;;;;61.53;46.93;;;9.80;99.90;;;;;;5018109;28;20637;-82
2023/10/20 06:27:03;;;;;;;62.92;46.25;;;9.80;99.90;;;;;;5013007;28;20064;-82
2023/10/20 06:29:46;;;;;;;62.87;45.50;;;9.80;99.90;;;;;;5014577;28;20052;-82
2023/10/20 06:32:25;;;;;;;59.70;44.70;;;9.80;99.90;;;;;;5013224;28;20153;-82
2023/10/20 06:34:53;;;;;;;65.03;45.83;;;9.80;99.90;;;;;;5014032;28;20025;-82
2023/10/20 06:37:28;;;;;;;67.93;47.73;;;9.90;99.90;;;;;;5016703;28;20114;-82
2023/10/20 06:39:54;;;;;;;63.38;46.38;;;9.80;99.90;;;;;;5017444;28;20120;-81
2023/10/20 06:42:19;;;;;;;67.20;48.30;;;9.90;99.90;;;;;;5017371;28;20129;-81
2023/10/20 06:44:45;;;;;;;68.90;49.03;;;9.90;99.90;;;;;;5012302;28;20539;-81
2023/10/20 06:47:11;;;;;;;67.70;47.67;;;9.80;99.90;;;;;;5014799;28;20031;-81
2023/10/20 06:49:36;;;;;;;65.80;47.57;;;9.90;99.90;;;;;;5013098;28;20079;-81
2023/10/20 06:52:03;;;;;;;62.97;46.60;;;9.90;99.90;;;;;;5015656;28;20022;-82
2023/10/20 06:54:29;;;;;;;66.07;48.17;;;9.80;99.90;;;;;;5015927;28;20029;-82
2023/10/20 06:56:55;;;;;;;59.63;45.83;;;9.90;99.90;;;;;;5016642;28;20546;-82
2023/10/20 06:59:20;;;;;;;69.27;48.47;;;9.90;99.90;;;;;;5014454;28;20132;-81
2023/10/20 07:01:46;;;;;;;62.97;46.10;;;9.90;99.90;;;;;;5017862;28;20048;-82
2023/10/20 07:04:13;;;;;;;67.63;48.23;;;9.90;99.90;;;;;;5016199;28;20026;-82
2023/10/20 07:06:40;;;;;;;64.00;48.87;;;9.90;99.90;;;;;;5016070;28;20391;-81
2023/10/20 07:09:11;;;;;;;71.10;50.47;;;9.90;99.90;;;;;;5018645;28;20049;-81
2023/10/20 07:11:38;;;;;;;69.27;49.47;;;9.90;99.90;;;;;;5018309;28;20416;-81
2023/10/20 07:14:05;;;;;;;66.23;50.87;;;9.90;99.90;;;;;;5017997;28;20030;-81
2023/10/20 07:16:31;;;;;;;64.50;46.00;;;9.90;99.90;;;;;;5019662;28;21479;-81
2023/10/20 07:18:56;;;;;;;65.40;47.50;;;9.90;99.90;;;;;;5023551;28;20053;-82
2023/10/20 07:21:22;;;;;;;65.03;46.80;;;10.00;99.90;;;;;;5023061;28;20117;-82
2023/10/20 07:23:48;;;;;;;69.37;48.73;;;10.00;99.90;;;;;;5020698;28;20041;-82
2023/10/20 07:26:17;;;;;;;63.00;47.80;;;10.00;99.90;;;;;;5002299;28;20034;-81
2023/10/20 07:28:46;;;;;;;64.00;47.63;;;10.00;99.90;;;;;;5023759;28;20506;-82
2023/10/20 07:31:15;;;;;;;64.33;47.17;;;10.00;99.90;;;;;;5022558;28;20504;-82
2023/10/20 07:33:41;;;;;;;63.30;47.93;;;10.00;99.90;;;;;;5021356;28;20095;-81
2023/10/20 07:36:07;;;;;;;63.67;47.93;;;10.00;99.90;;;;;;5022467;28;20116;-81
2023/10/20 07:38:33;;;;;;;60.35;44.40;;;10.00;99.90;;;;;;5024516;28;20041;-81
2023/10/20 07:41:10;;;;;;;65.28;49.45;;;10.10;99.90;;;;;;5020779;28;20037;-81
2023/10/20 07:43:36;;;;;;;62.17;46.80;;;10.10;99.90;;;;;;5022231;28;20037;-82
2023/10/20 07:46:02;;;;;;;64.63;46.70;;;10.10;99.90;;;;;;5017621;28;20528;-82
2023/10/20 07:48:28;;;;;;;64.00;45.10;;;10.10;99.90;;;;;;5021822;28;20361;-82
2023/10/20 07:50:56;;;;;;;62.63;45.13;;;10.10;99.90;;;;;;5021571;28;20497;-82
2023/10/20 07:53:22;;;;;;;62.70;45.23;;;10.20;99.90;;;;;;5023282;28;20029;-82
2023/10/20 07:55:47;;;;;;;61.77;45.00;;;10.20;99.90;;;;;;5021865;28;20033;-82
2023/10/20 07:58:13;;;;;;;60.47;44.33;;;10.20;99.90;;;;;;5019940;28;20091;-82
2023/10/20 08:00:39;;;;;;;63.08;44.88;;;10.30;99.90;;;;;;5019703;28;20040;-82
2023/10/20 08:03:05;;;;;;;63.25;45.40;;;10.30;99.90;;;;;;5018003;28;20040;-82
2023/10/20 08:05:33;;;;;;;60.97;43.90;;;10.40;99.90;;;;;;5019983;28;20029;-82
2023/10/20 08:08:01;;;;;;;55.55;43.22;;;10.40;99.90;;;;;;5022324;28;20036;-82
2023/10/20 08:10:27;;;;;;;55.85;42.10;;;10.50;99.90;;;;;;5020521;28;20040;-82
2023/10/20 08:12:52;;;;;;;57.55;43.03;;;10.60;99.90;;;;;;5022167;28;21356;-82
2023/10/20 08:15:19;;;;;;;54.42;41.00;;;10.70;99.90;;;;;;5021350;28;20052;-82
2023/10/20 08:17:46;;;;;;;53.97;40.38;;;10.90;99.90;;;;;;5021821;28;20541;-81
2023/10/20 08:20:11;;;;;;;55.28;41.03;;;11.00;99.90;;;;;;5022552;28;20036;-82
2023/10/20 08:22:37;;;;;;;50.92;38.38;;;11.20;99.90;;;;;;5024294;28;21629;-82
2023/10/20 08:25:04;;;;;;;49.03;35.33;;;11.30;99.90;;;;;;5022093;28;20950;-82
2023/10/20 08:27:30;;;;;;;48.08;36.42;;;11.40;99.90;;;;;;5023107;28;20110;-82
2023/10/20 08:29:57;;;;;;;50.00;36.88;;;11.50;99.90;;;;;;5023726;28;20071;-82
2023/10/20 08:32:26;;;;;;;48.45;36.28;;;11.60;99.90;;;;;;5023541;28;20021;-82
2023/10/20 08:34:52;;;;;;;46.17;35.17;;;11.70;99.90;;;;;;5022990;28;20036;-82
2023/10/20 08:37:18;;;;;;;45.45;35.13;;;11.70;99.90;;;;;;5021803;28;20799;-82
2023/10/20 08:39:44;;;;;;;46.22;35.28;;;11.90;99.90;;;;;;5021676;28;20030;-82
2023/10/20 08:42:20;;;;;;;46.50;35.17;;;11.90;99.90;;;;;;5021869;28;20036;-82
2023/10/20 08:44:46;;;;;;;46.28;34.67;;;12.00;99.90;;;;;;5020266;28;20117;-82
2023/10/20 08:47:13;;;;;;;47.17;34.83;;;12.00;99.90;;;;;;5023188;28;20111;-82
2023/10/20 08:49:39;;;;;;;42.78;33.72;;;12.10;99.90;;;;;;5020688;28;20030;-82
2023/10/20 08:52:10;;;;;;;49.15;34.65;;;12.10;99.90;;;;;;5025248;28;21100;-82
2023/10/20 08:54:35;;;;;;;43.47;33.03;;;12.20;99.90;;;;;;5028844;28;20151;-82
2023/10/20 08:57:01;;;;;;;43.03;34.08;;;12.20;99.90;;;;;;5034465;28;20037;-82
2023/10/20 08:59:27;;;;;;;44.00;32.78;;;12.30;99.90;;;;;;5027354;28;20117;-82
2023/10/20 09:01:52;;;;;;;43.10;32.97;;;12.40;99.90;;;;;;5019129;28;20040;-82
2023/10/20 09:04:25;;;;;;;44.03;31.23;;;12.50;99.90;;;;;;5016840;28;20056;-83
2023/10/20 09:06:52;;;;;;;42.22;32.83;;;12.50;99.90;;;;;;5018715;28;20036;-82
2023/10/20 09:09:19;;;;;;;42.58;31.20;;;12.60;99.90;;;;;;5017509;28;20480;-83
2023/10/20 09:11:45;;;;;;;39.65;31.30;;;12.60;99.90;;;;;;5017897;28;20827;-83
2023/10/20 09:14:12;;;;;;;46.72;31.10;;;12.70;99.90;;;;;;5016477;28;20135;-82
2023/10/20 09:16:38;;;;;;;40.80;30.50;;;12.80;99.90;;;;;;5016915;28;20026;-83
2023/10/20 09:19:04;;;;;;;40.08;28.95;;;12.90;99.90;;;;;;5014405;28;20030;-83
2023/10/20 09:21:30;;;;;;;37.03;27.80;;;13.00;99.90;;;;;;5017718;28;20058;-83
2023/10/20 09:23:56;;;;;;;40.78;26.95;;;13.10;99.90;;;;;;5016026;28;20474;-82
2023/10/20 09:26:24;;;;;;;33.05;26.17;;;13.20;99.90;;;;;;5016723;28;20056;-83
2023/10/20 09:28:53;;;;;;;34.17;25.45;;;13.30;99.90;;;;;;5013632;28;20472;-83
2023/10/20 09:31:19;;;;;;;31.17;23.60;;;13.40;99.90;;;;;;5015646;28;20550;-83
2023/10/20 09:33:45;;;;;;;34.22;23.98;;;13.60;99.90;;;;;;5019301;28;20030;-84
2023/10/20 09:36:11;;;;;;;34.60;23.00;;;13.70;99.90;;;;;;5019376;28;20025;-83
2023/10/20 09:38:38;;;;;;;30.88;20.48;;;13.80;99.90;;;;;;5020738;28;21399;-83
2023/10/20 09:41:12;;;;;;;27.98;19.40;;;14.00;99.90;;;;;;5019063;28;20076;-84
2023/10/20 09:43:49;;;;;;;25.50;18.45;;;14.20;99.90;;;;;;5019651;28;20060;-84
2023/10/20 09:46:46;;;;;;;22.38;16.45;;;14.40;99.90;;;;;;5020790;28;20031;-84
2023/10/20 09:49:19;;;;;;;21.98;14.85;;;14.60;99.90;;;;;;5018963;28;20154;-83
2023/10/20 09:51:45;;;;;;;18.70;13.85;;;14.80;99.90;;;;;;5019457;28;20037;-83
2023/10/20 09:54:17;;;;;;;16.88;11.48;;;15.00;99.90;;;;;;5020747;28;20172;-84
2023/10/20 09:56:44;;;;;;;17.98;10.13;;;15.20;99.90;;;;;;5018029;28;20033;-84
2023/10/20 09:59:15;;;;;;;13.93;8.73;;;15.40;99.90;;;;;;5020209;28;20030;-84
2023/10/20 10:01:43;;;;;;;12.93;7.00;;;15.80;99.90;;;;;;5020304;28;20506;-84
2023/10/20 10:04:09;;;;;;;9.25;5.97;;;16.10;99.90;;;;;;5019590;28;20018;-84
2023/10/20 10:06:36;;;;;;;7.55;4.88;;;16.50;99.90;;;;;;5019087;28;20022;-84
2023/10/20 10:09:06;;;;;;;12.73;9.15;;;16.80;99.90;;;;;;5017180;28;20026;-84
2023/10/20 10:11:41;;;;;;;10.02;5.40;;;17.00;99.90;;;;;;5019189;28;20030;-83
2023/10/20 10:14:07;;;;;;;5.50;3.70;;;17.20;99.90;;;;;;5018274;28;20055;-84
2023/10/20 10:16:47;;;;;;;11.45;5.25;;;17.40;99.90;;;;;;5018524;28;20033;-84
2023/10/20 10:19:13;;;;;;;8.27;3.30;;;17.60;99.90;;;;;;5018859;28;20033;-85
2023/10/20 10:21:39;;;;;;;5.82;2.75;;;17.80;99.90;;;;;;5020899;28;20758;-84
2023/10/20 10:24:19;;;;;;;4.65;2.90;;;17.90;99.90;;;;;;5018389;28;20022;-84
2023/10/20 10:26:52;;;;;;;8.88;2.97;;;18.10;99.90;;;;;;5016809;28;20030;-84
2023/10/20 10:29:39;;;;;;;7.20;3.80;;;18.20;99.90;;;;;;5019835;28;20035;-84
2023/10/20 10:32:12;;;;;;;6.30;2.47;;;18.30;99.90;;;;;;5004017;28;20029;-84
2023/10/20 10:34:43;;;;;;;6.10;2.55;;;18.30;99.90;;;;;;5017001;28;20017;-84
2023/10/20 10:37:09;;;;;;;4.47;2.88;;;18.40;99.90;;;;;;5016806;28;20100;-85
2023/10/20 10:39:35;;;;;;;7.20;3.17;;;18.50;99.90;;;;;;5015914;28;20102;-85
2023/10/20 10:42:05;;;;;;;9.65;6.68;;;18.70;99.90;;;;;;5019471;28;20032;-88
2023/10/20 10:44:33;;;;;;;10.27;7.05;;;18.70;99.90;;;;;;5018587;28;20098;-85
2023/10/20 10:46:59;;;;;;;8.95;6.20;;;18.50;99.90;;;;;;5020718;28;20839;-85
2023/10/20 10:49:24;;;;;;;11.90;5.90;;;18.40;99.90;;;;;;5019865;28;20062;-85
2023/10/20 10:51:52;;;;;;;9.43;5.68;;;18.40;99.90;;;;;;5021818;28;20060;-85
2023/10/20 10:54:19;;;;;;;8.50;5.45;;;18.30;99.90;;;;;;5022653;28;20036;-86
2023/10/20 10:56:45;;;;;;;10.60;5.40;;;18.30;99.90;;;;;;5019533;28;20029;-85
2023/10/20 10:59:11;;;;;;;6.85;5.05;;;18.40;99.90;;;;;;5019233;28;20381;-85
2023/10/20 11:01:40;;;;;;;12.05;5.35;;;18.40;99.90;;;;;;5018447;28;20041;-84
2023/10/20 11:04:10;;;;;;;7.80;5.00;;;18.70;99.90;;;;;;5016785;28;20044;-85
2023/10/20 11:06:38;;;;;;;8.70;4.60;;;18.90;99.90;;;;;;5017848;28;20033;-85
2023/10/20 11:09:10;;;;;;;6.20;4.68;;;19.00;99.90;;;;;;5014661;28;20294;-84
2023/10/20 11:11:45;;;;;;;6.70;3.85;;;19.20;99.90;;;;;;5018115;28;20040;-85
2023/10/20 11:14:12;;;;;;;5.47;3.40;;;19.30;99.90;;;;;;5018932;28;20027;-84
2023/10/20 11:16:37;;;;;;;4.45;3.20;;;19.40;99.90;;;;;;5018715;28;20037;-84
2023/10/20 11:19:04;;;;;;;5.15;2.58;;;19.40;99.90;;;;;;5014049;28;20038;-85
2023/10/20 11:21:29;;;;;;;4.25;2.35;;;19.50;99.90;;;;;;5018206;28;20025;-85
2023/10/20 11:23:57;;;;;;;5.85;2.20;;;19.60;99.90;;;;;;5020244;28;20103;-85
2023/10/20 11:26:24;;;;;;;3.67;1.92;;;19.60;99.90;;;;;;5016523;28;20030;-85
2023/10/20 11:28:51;;;;;;;4.55;1.80;;;19.70;99.90;;;;;;5015326;28;21001;-84
2023/10/20 11:31:16;;;;;;;4.50;2.00;;;19.80;99.90;;;;;;5016812;28;20391;-85
2023/10/20 11:33:42;;;;;;;2.40;2.10;;;19.80;99.90;;;;;;5019744;28;20048;-84
2023/10/20 11:36:07;;;;;;;3.28;1.98;;;19.90;99.90;;;;;;5023426;28;20025;-85
2023/10/20 11:38:33;;;;;;;3.10;1.90;;;20.00;99.90;;;;;;5017227;28;20034;-85
2023/10/20 11:41:00;;;;;;;5.22;2.20;;;20.10;99.90;;;;;;5019218;28;20044;-85
2023/10/20 11:43:25;;;;;;;5.00;1.70;;;20.10;99.90;;;;;;5017117;28;20109;-85
2023/10/20 11:45:51;;;;;;;3.58;1.90;;;20.10;99.90;;;;;;5018433;28;20523;-85
2023/10/20 11:48:17;;;;;;;6.78;2.95;;;20.10;99.90;;;;;;5025197;28;20081;-86
2023/10/20 11:50:43;;;;;;;6.07;1.95;;;20.30;99.90;;;;;;5034311;28;20022;-87
2023/10/20 11:53:08;;;;;;;4.55;1.75;;;20.60;99.90;;;;;;5030943;28;20022;-86
2023/10/20 11:55:34;;;;;;;3.47;1.70;;;20.80;99.90;;;;;;5017874;28;20033;-86
2023/10/20 11:58:04;;;;;;;3.72;1.40;;;21.10;99.90;;;;;;5018486;28;20034;-85
2023/10/20 12:00:30;;;;;;;5.55;1.77;;;21.20;99.90;;;;;;5018688;28;20053;-84
2023/10/20 12:02:55;;;;;;;4.55;1.30;;;21.20;99.90;;;;;;5016834;28;20113;-86
2023/10/20 12:05:21;;;;;;;4.10;1.20;;;21.10;99.90;;;;;;5016240;28;20075;-85
2023/10/20 12:07:46;;;;;;;2.00;1.20;;;20.90;99.90;;;;;;5017414;28;20429;-84
2023/10/20 12:10:12;;;;;;;3.20;1.30;;;20.70;99.90;;;;;;5018116;28;20033;-84
2023/10/20 12:12:38;;;;;;;2.97;1.50;;;20.50;99.90;;;;;;5016484;28;20368;-87
2023/10/20 12:15:05;;;;;;;3.78;1.60;;;20.50;99.90;;;;;;5015920;28;20030;-85
2023/10/20 12:17:30;;;;;;;4.20;1.38;;;20.40;99.90;;;;;;5014656;28;20022;-85
2023/10/20 12:19:56;;;;;;;3.88;1.58;;;20.30;99.90;;;;;;5014374;28;20044;-85
2023/10/20 12:22:23;;;;;;;3.50;1.70;;;20.20;99.90;;;;;;5016287;28;20049;-85
2023/10/20 12:24:50;;;;;;;6.40;1.70;;;20.00;99.90;;;;;;5016562;28;20040;-85
2023/10/20 12:27:15;;;;;;;3.10;1.50;;;19.70;99.90;;;;;;5018483;28;20037;-85
2023/10/20 12:29:41;;;;;;;3.00;1.70;;;19.60;99.90;;;;;;5015638;28;20022;-82
2023/10/20 12:32:10;;;;;;;3.28;1.65;;;19.70;99.90;;;;;;5016232;28;20030;-81
2023/10/20 12:34:36;;;;;;;3.22;1.90;;;19.60;99.90;;;;;;5017316;28;20021;-87
2023/10/20 12:37:01;;;;;;;6.13;1.80;;;19.60;99.90;;;;;;5018325;28;20032;-83
2023/10/20 12:39:28;;;;;;;2.97;1.85;;;19.70;99.90;;;;;;5012962;28;20034;-82
2023/10/20 12:41:54;;;;;;;3.83;1.80;;;19.70;99.90;;;;;;5017814;28;20093;-82
2023/10/20 12:44:20;;;;;;;2.40;1.52;;;19.70;99.90;;;;;;5016506;28;20112;-80
2023/10/20 12:46:45;;;;;;;4.25;2.00;;;19.60;99.90;;;;;;5016731;28;20093;-80
2023/10/20 12:49:11;;;;;;;3.83;2.10;;;19.50;99.90;;;;;;5015465;28;20040;-80
2023/10/20 12:51:37;;;;;;;3.45;1.95;;;19.50;99.90;;;;;;5018564;28;20022;-81
2023/10/20 12:54:04;;;;;;;3.97;2.00;;;19.50;99.90;;;;;;5018810;28;20026;-78
2023/10/20 12:56:30;;;;;;;3.13;1.92;;;19.40;99.90;;;;;;5016723;28;20112;-81